Time;durP1;ratioP1;P1;durP2;ratioP2;P2;SDS_P1;SDS_P2;PMS_P1;PMS_P2;Temp;Humidity;BMP_temperature;BMP_pressure;BME280_temperature;BME280_humidity;BME280_pressure;Samples;Min_cycle;Max_cycle;Signal;HPM_P1;HPM_P2
2022/01/29 00:00:29;;;;;;;29.00;13.02;;;3.20;99.90;;;;;;5029471;28;20503;-79
2022/01/29 00:02:55;;;;;;;35.35;14.13;;;3.10;99.90;;;;;;5035464;28;20088;-79
2022/01/29 00:05:21;;;;;;;31.00;13.52;;;3.10;99.90;;;;;;5029650;28;20479;-80
2022/01/29 00:07:47;;;;;;;32.53;13.27;;;3.10;99.90;;;;;;5028715;28;20018;-79
2022/01/29 00:10:14;;;;;;;27.40;12.45;;;3.20;99.90;;;;;;5029718;28;20028;-80
2022/01/29 00:12:40;;;;;;;30.10;14.73;;;3.10;99.90;;;;;;5029859;28;20025;-79
2022/01/29 00:15:07;;;;;;;31.98;13.10;;;3.10;99.90;;;;;;5029355;28;20033;-79
2022/01/29 00:17:32;;;;;;;32.05;12.38;;;3.10;99.90;;;;;;5029297;28;20063;-79
2022/01/29 00:19:58;;;;;;;31.20;13.32;;;3.20;99.90;;;;;;5029494;28;20518;-79
2022/01/29 00:22:24;;;;;;;34.08;12.82;;;3.20;99.90;;;;;;5034296;28;20505;-79
2022/01/29 00:24:50;;;;;;;29.00;12.27;;;3.10;99.90;;;;;;5029158;28;20095;-79
2022/01/29 00:27:18;;;;;;;28.98;12.25;;;3.10;99.90;;;;;;5028479;28;20506;-79
2022/01/29 00:29:44;;;;;;;25.83;11.77;;;3.10;99.90;;;;;;5027757;28;20518;-79
2022/01/29 00:32:11;;;;;;;27.80;11.38;;;3.10;99.90;;;;;;5029180;28;20032;-79
2022/01/29 00:34:37;;;;;;;25.65;11.05;;;3.10;99.90;;;;;;5029772;28;20052;-79
2022/01/29 00:37:04;;;;;;;28.10;12.95;;;3.20;99.90;;;;;;5028113;28;20034;-79
2022/01/29 00:39:30;;;;;;;26.60;11.23;;;3.20;99.90;;;;;;5028829;28;20017;-79
2022/01/29 00:41:55;;;;;;;24.00;10.05;;;3.10;99.90;;;;;;5033882;28;20036;-80
2022/01/29 00:44:21;;;;;;;22.90;10.85;;;3.10;99.90;;;;;;5033843;28;20025;-79
2022/01/29 00:46:47;;;;;;;28.50;11.75;;;3.00;99.90;;;;;;5029131;28;20050;-79
2022/01/29 00:49:13;;;;;;;25.88;11.25;;;3.00;99.90;;;;;;5030401;28;20114;-79
2022/01/29 00:51:40;;;;;;;22.75;10.85;;;3.00;99.90;;;;;;5028473;28;20183;-80
2022/01/29 00:54:06;;;;;;;20.40;9.85;;;3.10;99.90;;;;;;5028423;28;20025;-79
2022/01/29 00:56:31;;;;;;;22.52;10.77;;;3.10;99.90;;;;;;5028635;28;20415;-79
2022/01/29 00:58:58;;;;;;;24.05;10.20;;;3.10;99.90;;;;;;5027720;28;20068;-79
2022/01/29 01:01:24;;;;;;;19.90;9.38;;;3.00;99.90;;;;;;5033254;28;20119;-79
2022/01/29 01:03:50;;;;;;;18.33;9.02;;;3.10;99.90;;;;;;5025724;28;20018;-79
2022/01/29 01:06:16;;;;;;;19.83;9.60;;;3.10;99.90;;;;;;5025904;28;20422;-79
2022/01/29 01:08:42;;;;;;;23.30;10.50;;;2.90;99.90;;;;;;5027258;28;20061;-79
2022/01/29 01:11:08;;;;;;;20.15;8.98;;;2.80;99.90;;;;;;5027617;28;20501;-79
2022/01/29 01:13:34;;;;;;;18.98;9.48;;;2.90;99.90;;;;;;5029339;28;20549;-80
2022/01/29 01:16:00;;;;;;;20.85;9.48;;;2.80;99.90;;;;;;5028953;28;20041;-79
2022/01/29 01:18:26;;;;;;;22.52;9.95;;;2.80;99.90;;;;;;5028106;28;20177;-79
2022/01/29 01:20:53;;;;;;;18.20;9.30;;;2.70;99.90;;;;;;5035238;28;20108;-79
2022/01/29 01:23:20;;;;;;;20.15;9.80;;;2.60;99.90;;;;;;5028303;28;20119;-79
2022/01/29 01:25:45;;;;;;;20.67;10.00;;;2.70;99.90;;;;;;5027110;28;20048;-79
2022/01/29 01:28:11;;;;;;;22.48;9.55;;;2.80;99.90;;;;;;5028532;28;20402;-79
2022/01/29 01:30:37;;;;;;;19.05;9.73;;;2.80;99.90;;;;;;5028053;28;20025;-79
2022/01/29 01:33:04;;;;;;;18.48;8.82;;;2.80;99.90;;;;;;5028403;28;20116;-79
2022/01/29 01:35:36;;;;;;;20.33;9.25;;;2.80;99.90;;;;;;5028373;28;20021;-79
2022/01/29 01:38:14;;;;;;;22.70;8.85;;;2.80;99.90;;;;;;5034965;28;20117;-79
2022/01/29 01:40:43;;;;;;;16.65;8.35;;;2.90;99.90;;;;;;5027155;28;20486;-79
2022/01/29 01:43:09;;;;;;;18.25;8.77;;;2.80;99.90;;;;;;5029750;28;20036;-79
2022/01/29 01:45:34;;;;;;;16.80;8.05;;;2.80;99.90;;;;;;5027671;28;20049;-79
2022/01/29 01:48:04;;;;;;;18.20;8.02;;;2.80;99.90;;;;;;5028181;28;20025;-79
2022/01/29 01:50:31;;;;;;;17.00;8.27;;;2.80;99.90;;;;;;5027857;28;20052;-80
2022/01/29 01:52:58;;;;;;;18.98;8.30;;;2.80;99.90;;;;;;5028401;28;20025;-79
2022/01/29 01:55:24;;;;;;;14.68;7.47;;;2.90;99.90;;;;;;5034254;28;20025;-79
2022/01/29 01:57:50;;;;;;;14.88;7.60;;;2.90;99.90;;;;;;5032073;28;20052;-79
2022/01/29 02:00:16;;;;;;;16.70;8.60;;;2.90;99.90;;;;;;5036045;28;20087;-79
2022/01/29 02:02:42;;;;;;;17.02;7.82;;;2.90;99.90;;;;;;5032147;28;20398;-79
2022/01/29 02:05:09;;;;;;;13.90;7.10;;;2.90;99.90;;;;;;5024558;28;20035;-79
2022/01/29 02:07:35;;;;;;;17.98;7.30;;;2.90;99.90;;;;;;5033030;28;20039;-80
2022/01/29 02:10:01;;;;;;;13.50;6.80;;;3.00;99.90;;;;;;5032649;28;20494;-79
2022/01/29 02:12:30;;;;;;;10.82;6.80;;;2.90;99.90;;;;;;5031695;28;20026;-79
2022/01/29 02:15:01;;;;;;;12.73;6.90;;;2.90;99.90;;;;;;5022987;28;20025;-80
2022/01/29 02:17:27;;;;;;;14.15;7.15;;;2.90;99.90;;;;;;5032075;28;20018;-79
2022/01/29 02:19:52;;;;;;;10.40;5.82;;;2.90;99.90;;;;;;5031944;28;20064;-79
2022/01/29 02:22:18;;;;;;;15.10;6.45;;;2.90;99.90;;;;;;5030325;28;20463;-79
2022/01/29 02:24:44;;;;;;;11.95;6.32;;;2.80;99.90;;;;;;5033434;28;20028;-79
2022/01/29 02:27:09;;;;;;;14.25;6.47;;;2.70;99.90;;;;;;5032407;28;20041;-80
2022/01/29 02:29:35;;;;;;;11.50;6.68;;;2.60;99.90;;;;;;5042981;28;20494;-79
2022/01/29 02:32:01;;;;;;;10.80;5.70;;;2.70;99.90;;;;;;5030403;28;20033;-80
2022/01/29 02:34:30;;;;;;;12.05;6.05;;;2.70;99.90;;;;;;5039560;28;20520;-79
2022/01/29 02:36:56;;;;;;;12.20;5.78;;;2.80;99.90;;;;;;5031194;28;20040;-79
2022/01/29 02:39:22;;;;;;;11.85;6.03;;;2.80;99.90;;;;;;5036897;28;20041;-79
2022/01/29 02:41:48;;;;;;;10.48;5.93;;;2.80;99.90;;;;;;5035450;28;20025;-79
2022/01/29 02:44:22;;;;;;;11.15;5.47;;;2.90;99.90;;;;;;5031442;28;20306;-79
2022/01/29 02:46:50;;;;;;;10.85;5.95;;;2.80;99.90;;;;;;5029450;28;20045;-79
2022/01/29 02:49:18;;;;;;;10.77;5.63;;;2.80;99.90;;;;;;5031491;28;20041;-79
2022/01/29 02:51:46;;;;;;;10.65;5.78;;;2.80;99.90;;;;;;5029953;28;20029;-79
2022/01/29 02:54:12;;;;;;;12.45;6.20;;;2.90;99.90;;;;;;5030212;28;20033;-79
2022/01/29 02:56:38;;;;;;;12.80;5.97;;;2.80;99.90;;;;;;5029554;28;20082;-79
2022/01/29 02:59:03;;;;;;;12.63;5.45;;;2.70;99.90;;;;;;5035513;28;20022;-79
2022/01/29 03:01:29;;;;;;;10.32;5.57;;;2.70;99.90;;;;;;5031805;28;20147;-79
2022/01/29 03:03:55;;;;;;;11.05;5.72;;;2.60;99.90;;;;;;5024178;28;20645;-79
2022/01/29 03:06:21;;;;;;;10.65;5.50;;;2.60;99.90;;;;;;5025845;28;20116;-79
2022/01/29 03:08:47;;;;;;;9.20;5.20;;;2.40;99.90;;;;;;5029446;28;20601;-79
2022/01/29 03:11:18;;;;;;;10.98;5.35;;;2.40;99.90;;;;;;5028510;28;20525;-79
2022/01/29 03:13:44;;;;;;;10.13;5.47;;;2.50;99.90;;;;;;5029700;28;20333;-79
2022/01/29 03:16:10;;;;;;;12.85;5.75;;;2.60;99.90;;;;;;5029729;28;20077;-79
2022/01/29 03:18:36;;;;;;;10.57;5.43;;;2.60;99.90;;;;;;5029463;28;20510;-79
2022/01/29 03:21:02;;;;;;;13.13;6.13;;;2.60;99.90;;;;;;5034740;28;20494;-80
2022/01/29 03:23:27;;;;;;;13.00;6.75;;;2.40;99.90;;;;;;5033378;28;20501;-80
2022/01/29 03:25:53;;;;;;;10.93;5.93;;;2.30;99.90;;;;;;5031811;28;20394;-79
2022/01/29 03:28:19;;;;;;;15.55;6.63;;;2.10;99.90;;;;;;5031481;28;20474;-79
2022/01/29 03:30:44;;;;;;;10.20;5.78;;;2.20;99.90;;;;;;5027028;28;20025;-79
2022/01/29 03:33:10;;;;;;;12.43;6.25;;;2.20;99.90;;;;;;5029045;28;20547;-79
2022/01/29 03:35:36;;;;;;;9.93;5.63;;;2.20;99.90;;;;;;5034696;28;20490;-80
2022/01/29 03:38:03;;;;;;;9.55;5.47;;;2.30;99.90;;;;;;5034552;28;20033;-79
2022/01/29 03:40:29;;;;;;;11.82;5.50;;;2.50;99.90;;;;;;5032403;28;20112;-79
2022/01/29 03:43:05;;;;;;;10.63;5.00;;;2.50;99.90;;;;;;5030163;28;20017;-79
2022/01/29 03:45:31;;;;;;;8.98;5.07;;;2.50;99.90;;;;;;4987098;28;1204098;-79
2022/01/29 03:47:57;;;;;;;8.68;5.00;;;2.60;99.90;;;;;;5029772;28;20025;-79
2022/01/29 03:50:23;;;;;;;11.35;5.70;;;2.60;99.90;;;;;;5040735;28;20036;-79
2022/01/29 03:52:49;;;;;;;9.63;4.70;;;2.60;99.90;;;;;;5030261;28;20524;-79
2022/01/29 03:55:15;;;;;;;11.02;5.80;;;2.50;99.90;;;;;;5029652;28;20605;-79
2022/01/29 03:57:40;;;;;;;9.05;5.40;;;2.40;99.90;;;;;;5029828;28;20036;-79
2022/01/29 04:00:07;;;;;;;11.73;5.20;;;2.50;99.90;;;;;;5033388;28;20024;-79
2022/01/29 04:02:33;;;;;;;10.43;6.50;;;2.50;99.90;;;;;;5030068;28;20021;-79
2022/01/29 04:04:58;;;;;;;12.18;5.80;;;2.50;99.90;;;;;;5029787;28;20064;-79
2022/01/29 04:07:24;;;;;;;12.10;5.95;;;2.50;99.90;;;;;;5031472;28;20417;-79
2022/01/29 04:09:51;;;;;;;10.88;5.78;;;2.60;99.90;;;;;;5030135;28;20036;-80
2022/01/29 04:12:17;;;;;;;9.13;5.28;;;2.50;99.90;;;;;;5035551;28;20045;-79
2022/01/29 04:14:44;;;;;;;12.07;5.55;;;2.50;99.90;;;;;;5028527;28;20030;-79
2022/01/29 04:17:11;;;;;;;12.32;5.50;;;2.50;99.90;;;;;;5027350;28;20041;-79
2022/01/29 04:19:38;;;;;;;11.18;5.50;;;2.50;99.90;;;;;;5030285;28;20040;-79
2022/01/29 04:22:05;;;;;;;11.55;5.80;;;2.50;99.90;;;;;;5030319;28;20028;-79
2022/01/29 04:24:32;;;;;;;12.10;5.95;;;2.40;99.90;;;;;;5029937;28;20033;-79
2022/01/29 04:26:58;;;;;;;10.77;5.53;;;2.40;99.90;;;;;;5037762;28;20056;-79
2022/01/29 04:29:27;;;;;;;12.85;6.25;;;2.30;99.90;;;;;;5034590;28;20022;-79
2022/01/29 04:32:07;;;;;;;13.52;6.18;;;2.20;99.90;;;;;;5030395;28;20023;-79
2022/01/29 04:34:33;;;;;;;12.50;6.32;;;2.10;99.90;;;;;;5034491;28;20037;-79
2022/01/29 04:36:59;;;;;;;12.90;6.53;;;2.10;99.90;;;;;;5028764;28;20055;-79
2022/01/29 04:39:25;;;;;;;11.25;6.05;;;2.20;99.90;;;;;;5029457;28;20514;-79
2022/01/29 04:41:50;;;;;;;11.98;6.13;;;2.20;99.90;;;;;;5029235;28;20021;-79
2022/01/29 04:44:17;;;;;;;13.50;6.82;;;2.20;99.90;;;;;;5027879;28;20559;-79
2022/01/29 04:46:43;;;;;;;12.68;6.15;;;2.10;99.90;;;;;;5029233;28;20108;-79
2022/01/29 04:49:09;;;;;;;11.93;5.88;;;2.10;99.90;;;;;;5030673;28;20064;-79
2022/01/29 04:51:35;;;;;;;11.45;5.72;;;2.10;99.90;;;;;;5029124;28;20506;-79
2022/01/29 04:54:01;;;;;;;13.23;5.80;;;2.20;99.90;;;;;;5028815;28;20503;-79
2022/01/29 04:56:27;;;;;;;10.77;6.03;;;2.20;99.90;;;;;;5034957;28;20502;-79
2022/01/29 04:58:52;;;;;;;11.70;5.72;;;2.10;99.90;;;;;;5031111;28;20067;-79
2022/01/29 05:01:18;;;;;;;12.23;5.45;;;2.10;99.90;;;;;;5029603;28;20507;-79
2022/01/29 05:03:44;;;;;;;8.57;4.63;;;2.20;99.90;;;;;;5028751;28;20025;-79
2022/01/29 05:06:10;;;;;;;12.35;5.18;;;2.20;99.90;;;;;;5028706;28;20501;-79
2022/01/29 05:08:36;;;;;;;11.57;5.55;;;2.10;99.90;;;;;;5015911;28;20029;-80
2022/01/29 05:11:03;;;;;;;9.43;4.95;;;2.10;99.90;;;;;;5022576;28;20083;-79
2022/01/29 05:13:30;;;;;;;9.70;5.00;;;2.10;99.90;;;;;;5030616;28;20025;-79
2022/01/29 05:26:58;;;;;;;8.32;4.25;;;2.30;99.90;;;;;;5018200;28;20528;-79
2022/01/29 05:29:26;;;;;;;9.65;5.10;;;2.20;99.90;;;;;;5028809;28;20048;-79
2022/01/29 05:31:52;;;;;;;9.98;4.63;;;2.30;99.90;;;;;;5028469;28;20022;-79
2022/01/29 05:34:20;;;;;;;8.95;4.93;;;2.40;99.90;;;;;;5033449;28;20060;-79
2022/01/29 05:36:45;;;;;;;8.18;4.60;;;2.20;99.90;;;;;;5028649;28;20088;-79
2022/01/29 05:39:11;;;;;;;10.02;4.97;;;2.30;99.90;;;;;;5030167;28;20556;-79
2022/01/29 05:41:37;;;;;;;9.02;4.38;;;2.20;99.90;;;;;;5027377;28;20014;-79
2022/01/29 05:44:03;;;;;;;9.35;5.22;;;2.30;99.90;;;;;;5028311;28;20477;-79
2022/01/29 05:46:28;;;;;;;9.88;5.60;;;2.30;99.90;;;;;;5030207;28;20073;-79
2022/01/29 05:48:54;;;;;;;9.07;4.68;;;2.30;99.90;;;;;;5028137;28;20440;-79
2022/01/29 05:51:20;;;;;;;9.02;4.65;;;2.30;99.90;;;;;;5026602;28;20578;-79
2022/01/29 05:53:45;;;;;;;8.70;4.50;;;2.20;99.90;;;;;;5030964;28;20033;-79
2022/01/29 05:56:11;;;;;;;10.07;4.80;;;2.30;99.90;;;;;;5033354;28;20498;-79
2022/01/29 05:58:37;;;;;;;8.50;4.65;;;2.30;99.90;;;;;;5030251;28;20025;-79
2022/01/29 06:01:03;;;;;;;10.35;4.97;;;2.30;99.90;;;;;;5029436;28;20020;-79
2022/01/29 06:03:29;;;;;;;9.55;4.95;;;2.00;99.90;;;;;;5027454;28;20036;-79
2022/01/29 06:05:55;;;;;;;9.68;4.68;;;2.00;99.90;;;;;;5018689;28;20025;-79
2022/01/29 06:08:21;;;;;;;8.40;4.95;;;2.10;99.90;;;;;;5027158;28;20490;-79
2022/01/29 06:10:47;;;;;;;8.07;4.47;;;2.20;99.90;;;;;;5028422;28;20036;-79
2022/01/29 06:13:15;;;;;;;8.73;4.38;;;2.00;99.90;;;;;;5029584;28;20037;-79
2022/01/29 06:15:46;;;;;;;6.22;4.15;;;2.00;99.90;;;;;;5026457;28;20029;-79
2022/01/29 06:18:16;;;;;;;7.90;4.18;;;2.00;99.90;;;;;;5031750;28;20104;-79
2022/01/29 06:20:44;;;;;;;9.15;5.05;;;2.00;99.90;;;;;;5026621;28;20076;-79
2022/01/29 06:23:11;;;;;;;7.72;4.43;;;2.10;99.90;;;;;;5027627;28;20068;-79
2022/01/29 06:25:37;;;;;;;8.38;4.38;;;2.00;99.90;;;;;;5040897;28;20104;-79
2022/01/29 06:28:03;;;;;;;9.20;4.43;;;2.10;99.90;;;;;;5027880;28;20112;-79
2022/01/29 06:30:29;;;;;;;7.28;4.10;;;2.20;99.90;;;;;;5028259;28;20025;-79
2022/01/29 06:32:55;;;;;;;8.73;4.47;;;2.10;99.90;;;;;;5027788;28;20029;-79
2022/01/29 06:35:20;;;;;;;8.20;5.18;;;2.10;99.90;;;;;;5033805;28;20025;-79
2022/01/29 06:37:46;;;;;;;9.70;5.00;;;2.10;99.90;;;;;;5031669;28;20025;-79
2022/01/29 06:40:12;;;;;;;9.05;4.57;;;2.10;99.90;;;;;;5031388;28;20108;-79
2022/01/29 06:42:38;;;;;;;7.22;4.32;;;2.20;99.90;;;;;;5031263;28;20025;-79
2022/01/29 06:45:05;;;;;;;11.77;5.03;;;2.20;99.90;;;;;;5031453;28;20393;-79
2022/01/29 06:47:31;;;;;;;10.48;4.80;;;2.00;99.90;;;;;;5030359;28;20137;-79
2022/01/29 06:49:57;;;;;;;9.45;4.75;;;2.00;99.90;;;;;;5031298;28;20021;-79
2022/01/29 06:52:23;;;;;;;10.57;4.55;;;2.10;99.90;;;;;;5035484;28;20131;-80
2022/01/29 06:54:49;;;;;;;6.90;4.00;;;2.10;99.90;;;;;;5032489;28;20561;-80
2022/01/29 06:57:15;;;;;;;9.27;5.22;;;2.00;99.90;;;;;;5034612;28;20033;-79
2022/01/29 06:59:40;;;;;;;7.90;4.60;;;2.00;99.90;;;;;;5031262;28;20497;-79
2022/01/29 07:02:06;;;;;;;8.77;4.72;;;2.00;99.90;;;;;;5031439;28;20422;-80
2022/01/29 07:04:32;;;;;;;6.93;4.13;;;2.00;99.90;;;;;;5033195;28;20101;-79
2022/01/29 07:06:58;;;;;;;9.10;4.60;;;2.00;99.90;;;;;;5028901;28;20597;-79
2022/01/29 07:09:24;;;;;;;8.40;4.22;;;2.00;99.90;;;;;;5031179;28;20489;-79
2022/01/29 07:11:55;;;;;;;8.73;4.78;;;2.10;99.90;;;;;;5030926;28;20017;-80
2022/01/29 07:14:21;;;;;;;8.05;4.10;;;2.10;99.90;;;;;;5035217;28;20032;-79
2022/01/29 07:16:47;;;;;;;11.00;4.53;;;2.00;99.90;;;;;;5034455;28;20028;-80
2022/01/29 07:19:13;;;;;;;8.77;4.45;;;2.00;99.90;;;;;;5032508;28;20506;-80
2022/01/29 07:21:38;;;;;;;9.18;5.13;;;2.00;99.90;;;;;;5030738;28;20033;-79
2022/01/29 07:24:05;;;;;;;7.00;4.32;;;2.00;99.90;;;;;;5030643;28;20512;-79
2022/01/29 07:26:31;;;;;;;6.93;4.15;;;1.90;99.90;;;;;;5039847;28;20052;-79
2022/01/29 07:28:57;;;;;;;7.03;4.20;;;1.80;99.90;;;;;;5030681;28;20498;-80
2022/01/29 07:31:23;;;;;;;7.35;4.18;;;2.00;99.90;;;;;;5038135;28;20075;-79
2022/01/29 07:33:49;;;;;;;7.80;4.72;;;2.00;99.90;;;;;;5032066;28;20041;-79
2022/01/29 07:36:15;;;;;;;9.38;4.88;;;1.90;99.90;;;;;;5033364;28;20524;-79
2022/01/29 07:38:41;;;;;;;7.97;4.60;;;2.10;99.90;;;;;;5026255;28;20108;-80
2022/01/29 07:41:06;;;;;;;7.38;4.40;;;2.10;99.90;;;;;;5030458;28;20100;-79
2022/01/29 07:43:32;;;;;;;9.48;4.38;;;2.20;99.90;;;;;;5031341;28;20113;-79
2022/01/29 07:45:58;;;;;;;8.82;4.93;;;2.10;99.90;;;;;;5030700;28;20050;-79
2022/01/29 07:48:24;;;;;;;8.50;4.97;;;1.90;99.90;;;;;;5030362;28;20538;-79
2022/01/29 07:50:51;;;;;;;9.95;4.75;;;2.00;99.90;;;;;;5034343;28;20029;-80
2022/01/29 07:53:17;;;;;;;7.60;4.38;;;2.10;99.90;;;;;;5034788;28;20018;-79
2022/01/29 07:55:43;;;;;;;8.00;4.32;;;2.00;99.90;;;;;;5033014;28;20040;-79
2022/01/29 07:58:10;;;;;;;9.93;4.93;;;1.80;99.90;;;;;;5031764;28;20022;-79
2022/01/29 08:00:35;;;;;;;7.18;3.92;;;1.80;99.90;;;;;;5028417;28;20053;-79
2022/01/29 08:03:01;;;;;;;11.45;4.90;;;2.00;99.90;;;;;;5029783;28;20482;-79
2022/01/29 08:05:27;;;;;;;9.05;4.45;;;2.00;99.90;;;;;;5028762;28;20243;-79
2022/01/29 08:07:53;;;;;;;6.75;4.03;;;2.00;99.90;;;;;;5035499;28;20031;-79
2022/01/29 08:10:18;;;;;;;6.68;4.22;;;2.10;99.90;;;;;;5031615;28;20465;-80
2022/01/29 08:12:44;;;;;;;8.68;4.82;;;2.20;99.90;;;;;;5028646;28;20033;-79
2022/01/29 08:15:10;;;;;;;8.85;4.50;;;2.20;99.90;;;;;;5032094;28;20545;-79
2022/01/29 08:17:35;;;;;;;9.93;4.88;;;2.20;99.90;;;;;;5029892;28;20520;-79
2022/01/29 08:20:02;;;;;;;9.38;5.15;;;2.20;99.90;;;;;;5028741;28;20067;-79
2022/01/29 08:22:28;;;;;;;11.07;6.00;;;2.00;99.90;;;;;;5030666;28;20044;-79
2022/01/29 08:24:54;;;;;;;12.32;6.15;;;1.80;99.90;;;;;;5030008;28;20032;-79
2022/01/29 08:27:20;;;;;;;11.18;6.28;;;1.90;99.90;;;;;;5033526;28;20034;-79
2022/01/29 08:29:46;;;;;;;11.60;5.90;;;2.00;99.90;;;;;;5034930;28;20068;-79
2022/01/29 08:32:12;;;;;;;12.25;6.95;;;1.90;99.90;;;;;;5029826;28;20056;-79
2022/01/29 08:34:39;;;;;;;13.23;6.68;;;1.70;99.90;;;;;;5030156;28;20064;-79
2022/01/29 08:37:06;;;;;;;11.15;6.32;;;1.80;99.90;;;;;;5028206;28;20540;-79
2022/01/29 08:39:33;;;;;;;13.10;7.20;;;1.70;99.90;;;;;;5029474;28;20075;-79
2022/01/29 08:41:59;;;;;;;12.23;6.85;;;1.80;99.90;;;;;;5028045;28;20120;-79
2022/01/29 08:44:25;;;;;;;13.98;7.38;;;1.90;99.90;;;;;;5027864;28;20121;-79
2022/01/29 08:46:51;;;;;;;12.32;6.70;;;2.00;99.90;;;;;;5029219;28;20120;-79
2022/01/29 08:49:17;;;;;;;10.52;6.25;;;1.90;99.90;;;;;;5032435;28;20029;-79
2022/01/29 08:51:43;;;;;;;12.32;6.57;;;2.10;99.90;;;;;;5029990;28;20033;-79
2022/01/29 08:54:09;;;;;;;12.95;6.40;;;2.10;99.90;;;;;;5032541;28;20036;-79
2022/01/29 08:56:34;;;;;;;10.25;6.20;;;2.20;99.90;;;;;;5027904;28;20071;-79
2022/01/29 08:59:00;;;;;;;12.60;6.47;;;2.10;99.90;;;;;;5028823;28;20036;-79
2022/01/29 09:01:26;;;;;;;11.65;6.18;;;2.20;99.90;;;;;;5030688;28;20498;-79
2022/01/29 09:03:52;;;;;;;13.38;7.38;;;2.10;99.90;;;;;;5027157;28;20030;-79
2022/01/29 09:06:18;;;;;;;14.35;6.80;;;2.00;99.90;;;;;;5028693;28;20026;-79
2022/01/29 09:08:49;;;;;;;15.55;6.82;;;2.10;99.90;;;;;;5035713;28;20048;-79
2022/01/29 09:11:16;;;;;;;11.27;6.28;;;2.30;99.90;;;;;;5028613;28;20022;-79
2022/01/29 09:13:42;;;;;;;12.30;6.05;;;2.30;99.90;;;;;;5028368;28;20037;-79
2022/01/29 09:16:08;;;;;;;13.10;6.28;;;2.20;99.90;;;;;;5038906;28;20126;-79
2022/01/29 09:18:34;;;;;;;12.65;6.68;;;2.20;99.90;;;;;;5031880;28;20112;-79
2022/01/29 09:21:00;;;;;;;12.30;6.95;;;2.40;99.90;;;;;;5028474;28;20395;-79
2022/01/29 09:23:25;;;;;;;12.25;6.43;;;2.40;99.90;;;;;;5027340;28;20212;-79
2022/01/29 09:25:52;;;;;;;11.57;6.43;;;2.50;99.90;;;;;;5034670;28;20696;-79
2022/01/29 09:28:18;;;;;;;10.43;5.78;;;2.40;99.90;;;;;;5033046;28;20045;-79
2022/01/29 09:30:48;;;;;;;9.93;5.05;;;2.60;99.90;;;;;;5029497;28;20049;-80
2022/01/29 09:33:14;;;;;;;8.52;5.03;;;2.60;99.90;;;;;;5028450;28;20033;-79
2022/01/29 09:35:40;;;;;;;10.05;5.57;;;2.60;99.90;;;;;;5026464;28;20022;-79
2022/01/29 09:38:07;;;;;;;8.77;5.57;;;2.70;99.90;;;;;;5027910;28;20033;-80
2022/01/29 09:40:33;;;;;;;7.82;4.40;;;2.60;99.90;;;;;;5028734;28;20028;-79
2022/01/29 09:43:01;;;;;;;8.55;5.25;;;2.50;99.90;;;;;;5027956;28;20021;-79
2022/01/29 09:45:27;;;;;;;8.73;5.15;;;2.60;99.90;;;;;;5028571;28;20113;-79
2022/01/29 09:48:01;;;;;;;8.43;5.15;;;2.60;99.90;;;;;;5034562;28;20175;-79
2022/01/29 09:50:32;;;;;;;11.00;5.82;;;2.50;99.90;;;;;;5032534;28;20041;-79
2022/01/29 09:52:59;;;;;;;8.00;4.80;;;2.40;99.90;;;;;;5028524;28;20026;-79
2022/01/29 09:55:26;;;;;;;9.77;5.32;;;2.50;99.90;;;;;;5030479;28;20018;-79
2022/01/29 09:57:52;;;;;;;8.65;5.35;;;2.60;99.90;;;;;;5028373;28;20556;-79
2022/01/29 10:00:19;;;;;;;10.43;5.55;;;2.60;99.90;;;;;;5026658;28;20041;-79
2022/01/29 10:03:05;;;;;;;9.10;5.10;;;2.50;99.90;;;;;;5027137;28;20029;-79
2022/01/29 10:05:35;;;;;;;7.53;4.68;;;2.60;99.90;;;;;;5023555;28;20021;-79
2022/01/29 10:08:01;;;;;;;9.13;4.65;;;2.60;99.90;;;;;;5032773;28;20030;-79
2022/01/29 10:10:27;;;;;;;11.75;5.70;;;2.50;99.90;;;;;;5029828;28;20076;-79
2022/01/29 10:12:53;;;;;;;11.30;5.82;;;2.30;99.90;;;;;;5028396;28;20029;-79
2022/01/29 10:15:22;;;;;;;16.15;8.00;;;2.20;99.90;;;;;;5030753;28;20100;-79
2022/01/29 10:17:49;;;;;;;13.57;7.35;;;2.00;99.90;;;;;;5030384;28;20056;-79
2022/01/29 10:20:43;;;;;;;12.50;6.93;;;2.20;99.90;;;;;;5032224;28;20025;-79
2022/01/29 10:23:09;;;;;;;9.65;5.28;;;2.40;99.90;;;;;;5030250;28;20577;-79
2022/01/29 10:25:41;;;;;;;10.95;6.72;;;2.50;99.90;;;;;;5029947;28;20104;-79
2022/01/29 10:28:12;;;;;;;11.38;6.20;;;2.60;99.90;;;;;;5033082;28;20052;-79
2022/01/29 10:31:02;;;;;;;12.00;6.72;;;2.50;99.90;;;;;;5034741;28;20092;-79
2022/01/29 10:33:36;;;;;;;9.93;6.07;;;2.30;99.90;;;;;;5031528;28;20083;-79
2022/01/29 10:36:15;;;;;;;12.18;6.35;;;2.40;99.90;;;;;;5031235;28;20021;-79
2022/01/29 10:38:41;;;;;;;13.98;8.13;;;2.40;99.90;;;;;;5019442;28;20032;-79
2022/01/29 10:41:09;;;;;;;12.75;6.97;;;2.40;99.90;;;;;;5030288;28;20025;-79
2022/01/29 10:43:36;;;;;;;12.40;6.88;;;2.40;99.90;;;;;;5033672;28;20079;-79
2022/01/29 10:46:02;;;;;;;11.45;6.03;;;2.60;99.90;;;;;;5031891;28;20515;-79
2022/01/29 10:48:43;;;;;;;10.05;5.55;;;2.70;99.90;;;;;;5034530;28;20045;-79
2022/01/29 10:51:11;;;;;;;12.43;5.75;;;2.70;99.90;;;;;;5032973;28;20052;-79
2022/01/29 10:53:37;;;;;;;8.85;5.63;;;2.80;99.90;;;;;;5030159;28;20021;-79
2022/01/29 10:56:04;;;;;;;10.52;5.97;;;2.90;99.90;;;;;;5030846;28;20394;-79
2022/01/29 10:58:38;;;;;;;11.50;5.88;;;2.90;99.90;;;;;;5031572;28;20029;-79
2022/01/29 11:01:30;;;;;;;11.05;5.70;;;2.70;99.90;;;;;;5042325;28;20026;-79
2022/01/29 11:03:56;;;;;;;8.23;5.28;;;2.90;99.90;;;;;;5027322;28;20092;-79
2022/01/29 11:06:31;;;;;;;8.93;5.32;;;2.90;99.90;;;;;;5032087;28;20477;-79
2022/01/29 11:08:58;;;;;;;9.02;5.15;;;2.90;99.90;;;;;;5029616;28;20034;-79
2022/01/29 11:11:24;;;;;;;12.70;6.78;;;2.70;99.90;;;;;;5031015;28;20067;-79
2022/01/29 11:13:50;;;;;;;11.02;6.47;;;2.40;99.90;;;;;;5031273;28;20112;-79
2022/01/29 11:16:16;;;;;;;11.73;6.32;;;2.60;99.90;;;;;;5031575;28;20125;-79
2022/01/29 11:18:43;;;;;;;13.88;6.78;;;2.70;99.90;;;;;;5030809;28;20022;-79
2022/01/29 11:21:09;;;;;;;10.68;5.78;;;2.60;99.90;;;;;;5030753;28;20030;-79
2022/01/29 11:23:35;;;;;;;10.70;5.78;;;2.80;99.90;;;;;;5037890;28;20478;-79
2022/01/29 11:26:01;;;;;;;11.57;5.95;;;2.90;99.90;;;;;;5035134;28;20036;-79
2022/01/29 11:28:29;;;;;;;10.30;6.03;;;3.00;99.90;;;;;;5032734;28;20032;-79
2022/01/29 11:31:15;;;;;;;10.10;5.72;;;3.10;99.90;;;;;;5031087;28;20022;-79
2022/01/29 11:33:59;;;;;;;9.35;5.13;;;3.20;99.90;;;;;;5029015;28;20033;-79
2022/01/29 11:36:47;;;;;;;9.40;5.07;;;3.20;99.90;;;;;;5028460;28;20084;-79
2022/01/29 11:39:19;;;;;;;9.23;5.55;;;3.00;99.90;;;;;;5030591;28;20061;-79
2022/01/29 11:41:45;;;;;;;10.27;5.68;;;2.60;99.90;;;;;;5029510;28;20053;-79
2022/01/29 11:44:27;;;;;;;11.27;5.72;;;2.60;99.90;;;;;;5036770;28;20040;-79
2022/01/29 11:46:53;;;;;;;9.90;5.30;;;2.80;99.90;;;;;;5033838;28;20110;-79
2022/01/29 11:49:21;;;;;;;11.50;6.22;;;2.90;99.90;;;;;;5032597;28;20490;-79
2022/01/29 11:51:51;;;;;;;10.35;5.40;;;3.00;99.90;;;;;;5029588;28;20493;-79
2022/01/29 11:54:18;;;;;;;9.73;5.68;;;2.90;99.90;;;;;;5030044;28;20033;-80
2022/01/29 11:56:44;;;;;;;10.02;5.22;;;2.90;99.90;;;;;;5030206;28;20044;-79
2022/01/29 11:59:19;;;;;;;9.98;5.60;;;3.00;99.90;;;;;;5028608;28;20487;-79
2022/01/29 12:01:59;;;;;;;11.90;6.40;;;3.00;99.90;;;;;;5030151;28;20022;-79
2022/01/29 12:04:48;;;;;;;11.77;6.45;;;2.70;99.90;;;;;;5032073;28;20021;-79
2022/01/29 12:07:31;;;;;;;13.45;7.22;;;2.50;99.90;;;;;;5033881;28;20053;-79
2022/01/29 12:10:02;;;;;;;17.20;7.72;;;2.60;99.90;;;;;;5029733;28;20049;-79
2022/01/29 12:12:30;;;;;;;15.52;7.43;;;2.60;99.90;;;;;;5030020;28;20509;-79
2022/01/29 12:14:57;;;;;;;12.20;6.63;;;2.70;99.90;;;;;;5029176;28;20116;-79
2022/01/29 12:17:42;;;;;;;10.63;5.75;;;2.90;99.90;;;;;;5029749;28;20100;-79
2022/01/29 12:20:12;;;;;;;11.05;6.00;;;3.00;99.90;;;;;;5029745;28;20045;-79
2022/01/29 12:22:39;;;;;;;13.98;7.05;;;3.00;99.90;;;;;;5030501;28;20060;-79
2022/01/29 12:25:10;;;;;;;10.85;6.40;;;2.70;99.90;;;;;;5040068;28;20486;-79
2022/01/29 12:27:45;;;;;;;;;;;2.90;99.90;;;;;;5030160;28;20031;-79
2022/01/29 12:30:13;;;;;;;10.90;5.82;;;3.20;99.90;;;;;;5030776;28;19909;-79
2022/01/29 12:32:39;;;;;;;12.35;6.15;;;3.10;99.90;;;;;;5027508;28;20040;-79
2022/01/29 12:35:05;;;;;;;11.02;6.35;;;3.10;99.90;;;;;;5025203;28;20025;-79
2022/01/29 12:37:31;;;;;;;9.73;5.32;;;3.10;99.90;;;;;;5030294;28;20109;-79
2022/01/29 12:40:21;;;;;;;11.95;6.22;;;3.10;99.90;;;;;;5029574;28;20101;-79
2022/01/29 12:42:58;;;;;;;10.27;5.85;;;3.00;99.90;;;;;;5029454;28;20088;-79
2022/01/29 12:45:26;;;;;;;11.73;6.45;;;2.90;99.90;;;;;;5024143;28;20108;-79
2022/01/29 12:48:09;;;;;;;10.10;5.57;;;2.90;99.90;;;;;;5030935;28;20033;-79
2022/01/29 12:50:35;;;;;;;10.40;5.55;;;3.20;99.90;;;;;;5028115;28;20029;-79
2022/01/29 12:53:10;;;;;;;8.43;4.93;;;3.20;99.90;;;;;;5028886;28;20033;-79
2022/01/29 12:55:37;;;;;;;10.05;4.97;;;3.00;99.90;;;;;;5030940;28;20037;-80
2022/01/29 12:58:03;;;;;;;9.55;5.32;;;3.10;99.90;;;;;;5029416;28;20022;-79
2022/01/29 13:00:30;;;;;;;11.40;6.05;;;2.80;99.90;;;;;;5028776;28;20033;-79
2022/01/29 13:03:07;;;;;;;9.55;5.68;;;2.70;99.90;;;;;;5034830;28;20105;-79